Maynard, Arkansas
Current Conditions -  °F | °C
As of 4:15 AM on Sunday 26 Oct 2014 (Local Time) from K4M9 Reporting Station
Moderate Fog Moderate Fog  
Wind Chill: 55°   Ceiling: Unl
Heat Index: 55°   Visibility: 0mi
Dew Point: 55°   Wind: 5mph
Humidity: 100%   Direction: 340°NNW
Pressure: 29.99"   Gusts: NA
Location:  36.42°N, 90.9°W
Report Text: K4M9 260915Z AUTO 34004KT M1/4SM FG VV000 13/13 A2999 RMK AO2
Loading
Personal Weather Stations






























Interactive Weather Map
Tropical Storm Tracking
New forecast layout! Learn more

10-Day Weather Forecast

Advertisements
Track Severe Weather on mobile